sensor_id;sensor_type;location;lat;lon;timestamp;P1;durP1;ratioP1;P2;durP2;ratioP2
72797;SDS011;61084;55.816;37.036;2023-04-01T00:00:19;14.50;;;6.88;;
72797;SDS011;61084;55.816;37.036;2023-04-01T00:02:47;15.32;;;7.03;;
72797;SDS011;61084;55.816;37.036;2023-04-01T00:05:12;17.55;;;7.47;;
72797;SDS011;61084;55.816;37.036;2023-04-01T00:07:39;16.33;;;6.68;;
72797;SDS011;61084;55.816;37.036;2023-04-01T00:10:07;16.75;;;6.93;;
72797;SDS011;61084;55.816;37.036;2023-04-01T00:12:34;14.25;;;6.90;;
72797;SDS011;61084;55.816;37.036;2023-04-01T00:15:05;17.50;;;6.70;;
72797;SDS011;61084;55.816;37.036;2023-04-01T00:17:32;18.85;;;7.10;;
72797;SDS011;61084;55.816;37.036;2023-04-01T00:19:59;13.93;;;6.28;;
72797;SDS011;61084;55.816;37.036;2023-04-01T00:22:25;12.52;;;5.97;;
72797;SDS011;61084;55.816;37.036;2023-04-01T00:24:52;17.63;;;6.65;;
72797;SDS011;61084;55.816;37.036;2023-04-01T00:27:18;16.20;;;6.95;;
72797;SDS011;61084;55.816;37.036;2023-04-01T00:29:45;15.43;;;6.68;;
72797;SDS011;61084;55.816;37.036;2023-04-01T00:32:13;13.68;;;6.15;;
72797;SDS011;61084;55.816;37.036;2023-04-01T00:34:39;16.33;;;7.53;;
72797;SDS011;61084;55.816;37.036;2023-04-01T00:37:06;13.02;;;6.20;;
72797;SDS011;61084;55.816;37.036;2023-04-01T00:39:33;12.25;;;6.38;;
72797;SDS011;61084;55.816;37.036;2023-04-01T00:44:27;15.93;;;5.70;;
72797;SDS011;61084;55.816;37.036;2023-04-01T00:46:56;11.55;;;5.80;;
72797;SDS011;61084;55.816;37.036;2023-04-01T00:49:22;13.93;;;6.40;;
72797;SDS011;61084;55.816;37.036;2023-04-01T00:51:53;13.80;;;6.30;;
72797;SDS011;61084;55.816;37.036;2023-04-01T00:54:21;17.17;;;5.47;;
72797;SDS011;61084;55.816;37.036;2023-04-01T00:56:50;15.13;;;5.75;;
72797;SDS011;61084;55.816;37.036;2023-04-01T00:59:26;10.40;;;5.35;;
72797;SDS011;61084;55.816;37.036;2023-04-01T01:01:55;11.43;;;5.75;;
72797;SDS011;61084;55.816;37.036;2023-04-01T01:04:22;13.02;;;6.35;;
72797;SDS011;61084;55.816;37.036;2023-04-01T01:18:43;15.00;;;6.22;;
72797;SDS011;61084;55.816;37.036;2023-04-01T01:27:46;16.95;;;7.32;;
72797;SDS011;61084;55.816;37.036;2023-04-01T01:35:53;14.55;;;7.00;;
72797;SDS011;61084;55.816;37.036;2023-04-01T01:38:24;12.73;;;6.55;;
72797;SDS011;61084;55.816;37.036;2023-04-01T01:40:58;16.85;;;6.35;;
72797;SDS011;61084;55.816;37.036;2023-04-01T01:43:26;14.32;;;6.63;;
72797;SDS011;61084;55.816;37.036;2023-04-01T01:46:00;14.18;;;6.45;;
72797;SDS011;61084;55.816;37.036;2023-04-01T01:48:31;13.48;;;6.00;;
72797;SDS011;61084;55.816;37.036;2023-04-01T01:51:00;13.43;;;6.05;;
72797;SDS011;61084;55.816;37.036;2023-04-01T01:53:27;16.08;;;6.40;;
72797;SDS011;61084;55.816;37.036;2023-04-01T01:55:53;14.88;;;6.47;;
72797;SDS011;61084;55.816;37.036;2023-04-01T02:01:11;16.00;;;6.35;;
72797;SDS011;61084;55.816;37.036;2023-04-01T02:03:40;16.90;;;6.53;;
72797;SDS011;61084;55.816;37.036;2023-04-01T02:06:08;15.88;;;7.15;;
72797;SDS011;61084;55.816;37.036;2023-04-01T02:08:41;19.98;;;7.28;;
72797;SDS011;61084;55.816;37.036;2023-04-01T02:11:15;19.58;;;6.57;;
72797;SDS011;61084;55.816;37.036;2023-04-01T02:13:49;16.52;;;6.50;;
72797;SDS011;61084;55.816;37.036;2023-04-01T02:19:24;15.73;;;6.28;;
72797;SDS011;61084;55.816;37.036;2023-04-01T02:21:59;14.18;;;6.47;;
72797;SDS011;61084;55.816;37.036;2023-04-01T02:24:27;13.88;;;6.13;;
72797;SDS011;61084;55.816;37.036;2023-04-01T02:26:55;15.27;;;7.22;;
72797;SDS011;61084;55.816;37.036;2023-04-01T02:29:22;15.95;;;6.47;;
72797;SDS011;61084;55.816;37.036;2023-04-01T02:31:50;19.55;;;7.47;;
72797;SDS011;61084;55.816;37.036;2023-04-01T02:34:19;22.25;;;8.27;;
72797;SDS011;61084;55.816;37.036;2023-04-01T02:36:47;18.38;;;6.85;;
72797;SDS011;61084;55.816;37.036;2023-04-01T02:39:14;16.05;;;7.03;;
72797;SDS011;61084;55.816;37.036;2023-04-01T02:41:41;15.13;;;6.72;;
72797;SDS011;61084;55.816;37.036;2023-04-01T02:44:09;20.55;;;6.85;;
72797;SDS011;61084;55.816;37.036;2023-04-01T02:46:36;19.38;;;6.80;;
72797;SDS011;61084;55.816;37.036;2023-04-01T02:51:30;17.38;;;7.50;;
72797;SDS011;61084;55.816;37.036;2023-04-01T02:53:55;18.92;;;7.43;;
72797;SDS011;61084;55.816;37.036;2023-04-01T02:56:21;15.93;;;6.63;;
72797;SDS011;61084;55.816;37.036;2023-04-01T02:58:47;16.42;;;6.43;;
72797;SDS011;61084;55.816;37.036;2023-04-01T03:01:13;18.65;;;7.63;;
72797;SDS011;61084;55.816;37.036;2023-04-01T03:03:39;19.35;;;7.43;;
72797;SDS011;61084;55.816;37.036;2023-04-01T03:06:09;17.45;;;7.13;;
72797;SDS011;61084;55.816;37.036;2023-04-01T03:08:37;16.80;;;7.05;;
72797;SDS011;61084;55.816;37.036;2023-04-01T03:11:03;19.88;;;8.18;;
72797;SDS011;61084;55.816;37.036;2023-04-01T03:13:32;17.85;;;7.15;;
72797;SDS011;61084;55.816;37.036;2023-04-01T03:15:58;16.02;;;7.30;;
72797;SDS011;61084;55.816;37.036;2023-04-01T03:18:24;20.45;;;7.32;;
72797;SDS011;61084;55.816;37.036;2023-04-01T03:20:51;22.05;;;7.82;;
72797;SDS011;61084;55.816;37.036;2023-04-01T03:23:17;20.23;;;8.10;;
72797;SDS011;61084;55.816;37.036;2023-04-01T03:25:45;21.38;;;7.80;;
72797;SDS011;61084;55.816;37.036;2023-04-01T03:28:10;25.35;;;8.30;;
72797;SDS011;61084;55.816;37.036;2023-04-01T03:30:37;23.75;;;8.00;;
72797;SDS011;61084;55.816;37.036;2023-04-01T03:33:03;25.25;;;8.27;;
72797;SDS011;61084;55.816;37.036;2023-04-01T03:35:31;20.42;;;7.90;;
72797;SDS011;61084;55.816;37.036;2023-04-01T03:37:57;21.50;;;8.32;;
72797;SDS011;61084;55.816;37.036;2023-04-01T03:40:23;19.50;;;7.72;;
72797;SDS011;61084;55.816;37.036;2023-04-01T03:42:49;19.35;;;7.47;;
72797;SDS011;61084;55.816;37.036;2023-04-01T03:45:15;23.55;;;9.70;;
72797;SDS011;61084;55.816;37.036;2023-04-01T03:47:41;27.55;;;8.75;;
72797;SDS011;61084;55.816;37.036;2023-04-01T03:50:07;19.63;;;7.63;;
72797;SDS011;61084;55.816;37.036;2023-04-01T03:52:34;24.17;;;9.23;;
72797;SDS011;61084;55.816;37.036;2023-04-01T03:55:00;34.58;;;9.10;;
72797;SDS011;61084;55.816;37.036;2023-04-01T03:57:30;26.60;;;8.32;;
72797;SDS011;61084;55.816;37.036;2023-04-01T04:00:01;26.98;;;8.63;;
72797;SDS011;61084;55.816;37.036;2023-04-01T04:02:29;25.95;;;8.80;;
72797;SDS011;61084;55.816;37.036;2023-04-01T04:04:55;29.20;;;9.00;;
72797;SDS011;61084;55.816;37.036;2023-04-01T04:07:28;31.52;;;9.05;;
72797;SDS011;61084;55.816;37.036;2023-04-01T04:10:04;32.13;;;8.57;;
72797;SDS011;61084;55.816;37.036;2023-04-01T04:12:30;29.13;;;8.48;;
72797;SDS011;61084;55.816;37.036;2023-04-01T04:14:56;36.75;;;10.50;;
72797;SDS011;61084;55.816;37.036;2023-04-01T04:17:22;36.67;;;10.30;;
72797;SDS011;61084;55.816;37.036;2023-04-01T04:19:48;35.72;;;9.25;;
72797;SDS011;61084;55.816;37.036;2023-04-01T04:22:15;36.05;;;10.43;;
72797;SDS011;61084;55.816;37.036;2023-04-01T04:24:40;41.22;;;11.40;;
72797;SDS011;61084;55.816;37.036;2023-04-01T04:27:11;39.90;;;11.13;;
72797;SDS011;61084;55.816;37.036;2023-04-01T04:29:44;32.60;;;10.45;;
72797;SDS011;61084;55.816;37.036;2023-04-01T04:32:10;35.22;;;10.02;;
72797;SDS011;61084;55.816;37.036;2023-04-01T04:34:37;39.75;;;10.15;;
72797;SDS011;61084;55.816;37.036;2023-04-01T04:37:03;33.17;;;10.00;;
72797;SDS011;61084;55.816;37.036;2023-04-01T04:39:33;32.17;;;9.52;;
72797;SDS011;61084;55.816;37.036;2023-04-01T04:41:59;31.50;;;9.23;;
72797;SDS011;61084;55.816;37.036;2023-04-01T04:44:25;36.47;;;10.20;;
72797;SDS011;61084;55.816;37.036;2023-04-01T04:46:51;33.17;;;9.60;;
72797;SDS011;61084;55.816;37.036;2023-04-01T04:49:17;31.48;;;8.35;;
72797;SDS011;61084;55.816;37.036;2023-04-01T04:51:44;31.02;;;9.70;;
72797;SDS011;61084;55.816;37.036;2023-04-01T04:54:10;29.55;;;9.27;;
72797;SDS011;61084;55.816;37.036;2023-04-01T04:56:57;28.20;;;8.48;;
72797;SDS011;61084;55.816;37.036;2023-04-01T04:59:25;31.02;;;9.35;;
72797;SDS011;61084;55.816;37.036;2023-04-01T05:02:08;25.38;;;8.30;;
72797;SDS011;61084;55.816;37.036;2023-04-01T05:04:35;31.23;;;9.70;;
72797;SDS011;61084;55.816;37.036;2023-04-01T05:07:04;28.27;;;9.10;;
72797;SDS011;61084;55.816;37.036;2023-04-01T05:11:58;23.42;;;8.68;;
72797;SDS011;61084;55.816;37.036;2023-04-01T05:14:25;28.65;;;9.52;;
72797;SDS011;61084;55.816;37.036;2023-04-01T05:16:58;29.48;;;9.40;;
72797;SDS011;61084;55.816;37.036;2023-04-01T05:19:24;27.00;;;9.05;;
72797;SDS011;61084;55.816;37.036;2023-04-01T05:21:50;27.77;;;8.25;;
72797;SDS011;61084;55.816;37.036;2023-04-01T05:24:16;26.92;;;8.85;;
72797;SDS011;61084;55.816;37.036;2023-04-01T05:26:42;31.65;;;10.32;;
72797;SDS011;61084;55.816;37.036;2023-04-01T05:29:08;23.23;;;9.43;;
72797;SDS011;61084;55.816;37.036;2023-04-01T05:31:34;27.13;;;8.85;;
72797;SDS011;61084;55.816;37.036;2023-04-01T05:34:00;27.63;;;8.60;;
72797;SDS011;61084;55.816;37.036;2023-04-01T05:36:26;29.13;;;9.25;;
72797;SDS011;61084;55.816;37.036;2023-04-01T05:38:57;26.55;;;8.75;;
72797;SDS011;61084;55.816;37.036;2023-04-01T05:41:24;27.30;;;9.80;;
72797;SDS011;61084;55.816;37.036;2023-04-01T05:43:50;26.42;;;9.73;;
72797;SDS011;61084;55.816;37.036;2023-04-01T05:46:34;30.33;;;9.20;;
72797;SDS011;61084;55.816;37.036;2023-04-01T05:49:21;25.73;;;9.25;;
72797;SDS011;61084;55.816;37.036;2023-04-01T05:54:14;28.77;;;9.63;;
72797;SDS011;61084;55.816;37.036;2023-04-01T05:56:40;21.48;;;8.80;;
72797;SDS011;61084;55.816;37.036;2023-04-01T05:59:06;26.00;;;10.18;;
72797;SDS011;61084;55.816;37.036;2023-04-01T06:01:35;26.95;;;10.35;;
72797;SDS011;61084;55.816;37.036;2023-04-01T06:04:01;29.42;;;9.82;;
72797;SDS011;61084;55.816;37.036;2023-04-01T06:06:27;24.73;;;9.80;;
72797;SDS011;61084;55.816;37.036;2023-04-01T06:09:07;21.05;;;9.07;;
72797;SDS011;61084;55.816;37.036;2023-04-01T06:11:55;28.25;;;9.48;;
72797;SDS011;61084;55.816;37.036;2023-04-01T06:32:33;20.45;;;8.90;;
72797;SDS011;61084;55.816;37.036;2023-04-01T06:46:58;30.05;;;9.88;;
72797;SDS011;61084;55.816;37.036;2023-04-01T06:55:55;20.77;;;8.40;;
72797;SDS011;61084;55.816;37.036;2023-04-01T06:59:19;22.10;;;8.00;;
72797;SDS011;61084;55.816;37.036;2023-04-01T07:01:50;20.25;;;8.75;;
72797;SDS011;61084;55.816;37.036;2023-04-01T07:04:25;20.63;;;8.23;;
72797;SDS011;61084;55.816;37.036;2023-04-01T07:07:05;23.40;;;9.20;;
72797;SDS011;61084;55.816;37.036;2023-04-01T07:09:52;21.13;;;8.07;;
72797;SDS011;61084;55.816;37.036;2023-04-01T07:15:24;17.75;;;8.00;;
72797;SDS011;61084;55.816;37.036;2023-04-01T07:17:55;20.45;;;8.13;;
72797;SDS011;61084;55.816;37.036;2023-04-01T07:20:30;19.52;;;7.85;;
72797;SDS011;61084;55.816;37.036;2023-04-01T07:23:00;18.02;;;7.63;;
72797;SDS011;61084;55.816;37.036;2023-04-01T07:25:55;17.27;;;7.88;;
72797;SDS011;61084;55.816;37.036;2023-04-01T07:28:30;17.40;;;6.93;;
72797;SDS011;61084;55.816;37.036;2023-04-01T07:31:13;18.52;;;7.75;;
72797;SDS011;61084;55.816;37.036;2023-04-01T07:33:50;21.27;;;8.00;;
72797;SDS011;61084;55.816;37.036;2023-04-01T07:41:51;19.80;;;6.63;;
72797;SDS011;61084;55.816;37.036;2023-04-01T07:44:28;18.08;;;7.05;;
72797;SDS011;61084;55.816;37.036;2023-04-01T07:49:59;21.55;;;7.50;;
72797;SDS011;61084;55.816;37.036;2023-04-01T07:52:39;21.00;;;7.93;;
72797;SDS011;61084;55.816;37.036;2023-04-01T07:55:26;17.52;;;6.78;;
72797;SDS011;61084;55.816;37.036;2023-04-01T07:58:00;20.00;;;6.85;;
72797;SDS011;61084;55.816;37.036;2023-04-01T08:00:37;20.52;;;7.15;;
72797;SDS011;61084;55.816;37.036;2023-04-01T08:08:56;16.98;;;6.75;;
72797;SDS011;61084;55.816;37.036;2023-04-01T08:21:15;12.38;;;5.20;;
72797;SDS011;61084;55.816;37.036;2023-04-01T08:23:49;15.50;;;6.38;;
72797;SDS011;61084;55.816;37.036;2023-04-01T08:26:23;13.52;;;5.63;;
72797;SDS011;61084;55.816;37.036;2023-04-01T08:29:15;13.95;;;5.90;;
72797;SDS011;61084;55.816;37.036;2023-04-01T08:34:22;12.40;;;5.72;;
72797;SDS011;61084;55.816;37.036;2023-04-01T08:36:53;11.05;;;5.30;;
72797;SDS011;61084;55.816;37.036;2023-04-01T08:50:34;10.70;;;4.78;;
72797;SDS011;61084;55.816;37.036;2023-04-01T09:01:55;12.50;;;4.50;;
72797;SDS011;61084;55.816;37.036;2023-04-01T09:13:48;6.50;;;2.63;;
72797;SDS011;61084;55.816;37.036;2023-04-01T09:36:02;8.07;;;3.97;;
72797;SDS011;61084;55.816;37.036;2023-04-01T09:41:29;8.60;;;4.03;;
72797;SDS011;61084;55.816;37.036;2023-04-01T09:44:59;7.80;;;3.72;;
72797;SDS011;61084;55.816;37.036;2023-04-01T10:01:42;5.85;;;2.78;;
72797;SDS011;61084;55.816;37.036;2023-04-01T10:22:08;3.35;;;1.88;;
72797;SDS011;61084;55.816;37.036;2023-04-01T10:27:55;5.80;;;1.98;;
72797;SDS011;61084;55.816;37.036;2023-04-01T10:30:53;3.08;;;2.05;;
72797;SDS011;61084;55.816;37.036;2023-04-01T10:36:55;2.95;;;1.70;;
72797;SDS011;61084;55.816;37.036;2023-04-01T10:55:35;2.80;;;1.77;;
72797;SDS011;61084;55.816;37.036;2023-04-01T11:19:20;4.72;;;1.35;;
72797;SDS011;61084;55.816;37.036;2023-04-01T11:21:59;3.95;;;1.60;;
72797;SDS011;61084;55.816;37.036;2023-04-01T11:27:47;3.65;;;2.05;;
72797;SDS011;61084;55.816;37.036;2023-04-01T11:30:49;2.50;;;1.80;;
72797;SDS011;61084;55.816;37.036;2023-04-01T11:36:39;3.13;;;1.77;;
72797;SDS011;61084;55.816;37.036;2023-04-01T11:46:03;4.57;;;2.38;;
72797;SDS011;61084;55.816;37.036;2023-04-01T12:02:33;5.65;;;2.55;;
72797;SDS011;61084;55.816;37.036;2023-04-01T12:11:12;9.18;;;3.13;;
72797;SDS011;61084;55.816;37.036;2023-04-01T12:16:17;7.28;;;2.90;;
72797;SDS011;61084;55.816;37.036;2023-04-01T12:18:55;5.97;;;2.80;;
72797;SDS011;61084;55.816;37.036;2023-04-01T12:21:38;4.95;;;2.65;;
72797;SDS011;61084;55.816;37.036;2023-04-01T12:24:45;6.53;;;2.28;;
72797;SDS011;61084;55.816;37.036;2023-04-01T12:33:32;5.68;;;2.55;;
72797;SDS011;61084;55.816;37.036;2023-04-01T12:36:31;4.10;;;2.20;;
72797;SDS011;61084;55.816;37.036;2023-04-01T12:53:17;5.10;;;2.50;;
72797;SDS011;61084;55.816;37.036;2023-04-01T12:55:59;7.25;;;2.60;;
72797;SDS011;61084;55.816;37.036;2023-04-01T12:58:50;5.80;;;2.70;;
72797;SDS011;61084;55.816;37.036;2023-04-01T13:09:54;5.55;;;2.25;;
72797;SDS011;61084;55.816;37.036;2023-04-01T13:15:31;3.85;;;2.35;;
72797;SDS011;61084;55.816;37.036;2023-04-01T13:18:01;5.93;;;2.33;;
72797;SDS011;61084;55.816;37.036;2023-04-01T13:21:03;5.00;;;2.65;;
72797;SDS011;61084;55.816;37.036;2023-04-01T13:34:08;9.80;;;2.47;;
72797;SDS011;61084;55.816;37.036;2023-04-01T13:44:56;4.88;;;2.50;;
72797;SDS011;61084;55.816;37.036;2023-04-01T14:12:47;5.53;;;2.53;;
72797;SDS011;61084;55.816;37.036;2023-04-01T14:15:21;5.93;;;2.67;;
72797;SDS011;61084;55.816;37.036;2023-04-01T14:21:07;9.18;;;3.70;;
72797;SDS011;61084;55.816;37.036;2023-04-01T14:23:33;5.68;;;3.25;;
72797;SDS011;61084;55.816;37.036;2023-04-01T14:40:10;6.47;;;3.55;;
72797;SDS011;61084;55.816;37.036;2023-04-01T14:45:44;10.65;;;3.50;;
72797;SDS011;61084;55.816;37.036;2023-04-01T14:54:14;7.60;;;3.63;;
72797;SDS011;61084;55.816;37.036;2023-04-01T14:57:33;7.38;;;3.72;;
72797;SDS011;61084;55.816;37.036;2023-04-01T14:59:39;8.05;;;3.80;;
72797;SDS011;61084;55.816;37.036;2023-04-01T15:05:15;6.22;;;4.15;;
72797;SDS011;61084;55.816;37.036;2023-04-01T15:13:46;8.27;;;4.03;;
72797;SDS011;61084;55.816;37.036;2023-04-01T15:16:30;9.32;;;4.38;;
72797;SDS011;61084;55.816;37.036;2023-04-01T15:27:51;9.25;;;5.55;;
72797;SDS011;61084;55.816;37.036;2023-04-01T15:47:32;9.80;;;5.30;;
72797;SDS011;61084;55.816;37.036;2023-04-01T15:53:24;11.63;;;5.38;;
72797;SDS011;61084;55.816;37.036;2023-04-01T16:25:39;12.43;;;6.65;;
72797;SDS011;61084;55.816;37.036;2023-04-01T16:28:13;13.55;;;7.22;;
72797;SDS011;61084;55.816;37.036;2023-04-01T16:30:46;12.20;;;6.93;;
72797;SDS011;61084;55.816;37.036;2023-04-01T16:38:52;13.05;;;7.00;;
72797;SDS011;61084;55.816;37.036;2023-04-01T16:41:24;11.50;;;6.15;;
72797;SDS011;61084;55.816;37.036;2023-04-01T16:43:57;15.95;;;7.55;;
72797;SDS011;61084;55.816;37.036;2023-04-01T16:46:52;13.77;;;7.22;;
72797;SDS011;61084;55.816;37.036;2023-04-01T16:54:39;16.23;;;7.28;;
72797;SDS011;61084;55.816;37.036;2023-04-01T16:59:36;11.85;;;6.28;;
72797;SDS011;61084;55.816;37.036;2023-04-01T17:02:13;11.57;;;7.03;;
72797;SDS011;61084;55.816;37.036;2023-04-01T17:13:23;15.65;;;7.95;;
72797;SDS011;61084;55.816;37.036;2023-04-01T17:16:14;13.73;;;6.82;;
72797;SDS011;61084;55.816;37.036;2023-04-01T17:21:57;12.20;;;6.68;;
72797;SDS011;61084;55.816;37.036;2023-04-01T17:38:36;10.75;;;6.32;;
72797;SDS011;61084;55.816;37.036;2023-04-01T17:41:06;11.98;;;6.07;;
72797;SDS011;61084;55.816;37.036;2023-04-01T17:55:15;10.98;;;6.30;;
72797;SDS011;61084;55.816;37.036;2023-04-01T18:00:39;11.30;;;5.80;;
72797;SDS011;61084;55.816;37.036;2023-04-01T18:03:16;10.07;;;6.28;;
72797;SDS011;61084;55.816;37.036;2023-04-01T18:08:58;15.48;;;6.50;;
72797;SDS011;61084;55.816;37.036;2023-04-01T18:11:50;13.27;;;7.93;;
72797;SDS011;61084;55.816;37.036;2023-04-01T18:14:43;13.48;;;7.28;;
72797;SDS011;61084;55.816;37.036;2023-04-01T18:17:39;14.90;;;6.80;;
72797;SDS011;61084;55.816;37.036;2023-04-01T18:25:43;12.82;;;6.70;;
72797;SDS011;61084;55.816;37.036;2023-04-01T18:30:58;12.90;;;6.93;;
72797;SDS011;61084;55.816;37.036;2023-04-01T18:33:44;14.38;;;7.05;;
72797;SDS011;61084;55.816;37.036;2023-04-01T18:39:00;12.07;;;6.60;;
72797;SDS011;61084;55.816;37.036;2023-04-01T18:47:43;13.43;;;7.40;;
72797;SDS011;61084;55.816;37.036;2023-04-01T18:55:39;13.93;;;6.90;;
72797;SDS011;61084;55.816;37.036;2023-04-01T18:58:24;16.15;;;6.43;;
72797;SDS011;61084;55.816;37.036;2023-04-01T19:03:40;14.10;;;7.60;;
72797;SDS011;61084;55.816;37.036;2023-04-01T19:06:23;12.57;;;7.10;;
72797;SDS011;61084;55.816;37.036;2023-04-01T19:08:54;13.60;;;6.90;;
72797;SDS011;61084;55.816;37.036;2023-04-01T19:40:32;13.93;;;6.55;;
72797;SDS011;61084;55.816;37.036;2023-04-01T19:46:14;14.43;;;7.13;;
72797;SDS011;61084;55.816;37.036;2023-04-01T19:48:52;13.68;;;7.30;;
72797;SDS011;61084;55.816;37.036;2023-04-01T19:51:52;14.35;;;7.53;;
72797;SDS011;61084;55.816;37.036;2023-04-01T19:57:24;14.40;;;6.70;;
72797;SDS011;61084;55.816;37.036;2023-04-01T20:16:58;17.13;;;8.32;;
72797;SDS011;61084;55.816;37.036;2023-04-01T20:19:29;16.27;;;7.70;;
72797;SDS011;61084;55.816;37.036;2023-04-01T20:22:19;14.60;;;7.25;;
72797;SDS011;61084;55.816;37.036;2023-04-01T20:24:53;16.55;;;8.65;;
72797;SDS011;61084;55.816;37.036;2023-04-01T20:27:27;20.10;;;7.60;;
72797;SDS011;61084;55.816;37.036;2023-04-01T20:41:02;15.77;;;6.80;;
72797;SDS011;61084;55.816;37.036;2023-04-01T20:43:42;16.10;;;7.28;;
72797;SDS011;61084;55.816;37.036;2023-04-01T21:05:45;13.27;;;6.95;;
72797;SDS011;61084;55.816;37.036;2023-04-01T21:22:14;14.60;;;7.53;;
72797;SDS011;61084;55.816;37.036;2023-04-01T21:28:04;16.10;;;7.88;;
72797;SDS011;61084;55.816;37.036;2023-04-01T21:30:55;15.02;;;7.03;;
72797;SDS011;61084;55.816;37.036;2023-04-01T21:33:48;14.05;;;6.95;;
72797;SDS011;61084;55.816;37.036;2023-04-01T21:44:48;16.85;;;7.63;;
72797;SDS011;61084;55.816;37.036;2023-04-01T21:47:32;13.95;;;7.93;;
72797;SDS011;61084;55.816;37.036;2023-04-01T22:01:52;15.77;;;7.57;;
72797;SDS011;61084;55.816;37.036;2023-04-01T22:12:01;12.02;;;6.90;;
72797;SDS011;61084;55.816;37.036;2023-04-01T22:14:40;15.63;;;7.78;;
72797;SDS011;61084;55.816;37.036;2023-04-01T22:22:56;12.27;;;7.25;;
72797;SDS011;61084;55.816;37.036;2023-04-01T22:28:05;14.50;;;7.47;;
72797;SDS011;61084;55.816;37.036;2023-04-01T22:30:37;14.35;;;6.95;;
72797;SDS011;61084;55.816;37.036;2023-04-01T22:33:12;14.57;;;7.85;;
72797;SDS011;61084;55.816;37.036;2023-04-01T22:36:08;14.43;;;8.38;;
72797;SDS011;61084;55.816;37.036;2023-04-01T22:41:15;15.50;;;7.78;;
72797;SDS011;61084;55.816;37.036;2023-04-01T22:46:26;15.13;;;7.18;;
72797;SDS011;61084;55.816;37.036;2023-04-01T22:49:21;13.82;;;6.30;;
72797;SDS011;61084;55.816;37.036;2023-04-01T22:52:01;15.43;;;8.48;;
72797;SDS011;61084;55.816;37.036;2023-04-01T22:54:34;12.27;;;7.22;;
72797;SDS011;61084;55.816;37.036;2023-04-01T22:57:15;19.55;;;8.43;;
72797;SDS011;61084;55.816;37.036;2023-04-01T23:00:03;13.93;;;7.32;;
72797;SDS011;61084;55.816;37.036;2023-04-01T23:02:37;14.43;;;7.40;;
72797;SDS011;61084;55.816;37.036;2023-04-01T23:05:09;13.73;;;7.53;;
72797;SDS011;61084;55.816;37.036;2023-04-01T23:12:56;18.67;;;8.15;;
72797;SDS011;61084;55.816;37.036;2023-04-01T23:15:25;20.02;;;8.52;;
72797;SDS011;61084;55.816;37.036;2023-04-01T23:23:05;19.27;;;9.00;;
72797;SDS011;61084;55.816;37.036;2023-04-01T23:28:53;20.02;;;9.13;;
72797;SDS011;61084;55.816;37.036;2023-04-01T23:31:25;16.58;;;8.85;;
72797;SDS011;61084;55.816;37.036;2023-04-01T23:33:57;18.85;;;8.82;;
72797;SDS011;61084;55.816;37.036;2023-04-01T23:36:25;17.75;;;8.95;;
72797;SDS011;61084;55.816;37.036;2023-04-01T23:38:52;19.77;;;8.65;;
72797;SDS011;61084;55.816;37.036;2023-04-01T23:44:15;20.23;;;9.48;;
72797;SDS011;61084;55.816;37.036;2023-04-01T23:46:41;19.67;;;9.35;;
72797;SDS011;61084;55.816;37.036;2023-04-01T23:49:14;18.52;;;10.07;;
72797;SDS011;61084;55.816;37.036;2023-04-01T23:52:27;18.98;;;10.40;;
72797;SDS011;61084;55.816;37.036;2023-04-01T23:54:43;19.27;;;9.43;;
72797;SDS011;61084;55.816;37.036;2023-04-01T23:57:13;19.52;;;9.82;;
72797;SDS011;61084;55.816;37.036;2023-04-01T23:59:41;20.58;;;9.82;;
